Time;durP1;ratioP1;P1;durP2;ratioP2;P2;SDS_P1;SDS_P2;PMS_P1;PMS_P2;Temp;Humidity;BMP_temperature;BMP_pressure;BME280_temperature;BME280_humidity;BME280_pressure;Samples;Min_cycle;Max_cycle;Signal;HPM_P1;HPM_P2
2022/01/26 00:07:16;;;;;;;25.65;10.90;;;;;;;;;;6255949;22;20065;-78
2022/01/26 00:09:42;;;;;;;27.98;11.48;;;;;;;;;;6278721;22;20000;-78
2022/01/26 00:12:09;;;;;;;21.83;8.75;;;;;;;;;;6275847;22;21317;-78
2022/01/26 00:14:34;;;;;;;30.75;11.05;;;;;;;;;;6248972;22;19999;-78
2022/01/26 00:17:01;;;;;;;27.25;10.63;;;;;;;;;;6285744;22;20054;-77
2022/01/26 00:19:42;;;;;;;26.67;11.20;;;;;;;;;;6276340;22;19999;-81
2022/01/26 00:22:08;;;;;;;24.33;10.60;;;;;;;;;;6252274;22;20011;-80
2022/01/26 00:29:57;;;;;;;29.00;11.27;;;;;;;;;;6259953;22;20092;-80
2022/01/26 00:43:24;;;;;;;25.88;9.35;;;;;;;;;;6248963;22;20007;-78
2022/01/26 00:45:55;;;;;;;25.58;10.02;;;;;;;;;;6253997;22;20079;-78
2022/01/26 00:48:21;;;;;;;31.08;12.18;;;;;;;;;;6275818;22;20064;-77
2022/01/26 00:50:50;;;;;;;29.30;11.82;;;;;;;;;;6254205;22;20014;-78
2022/01/26 00:53:16;;;;;;;32.83;12.50;;;;;;;;;;6275797;22;19999;-78
2022/01/26 00:55:42;;;;;;;25.05;10.20;;;;;;;;;;6248433;22;20071;-78
2022/01/26 00:58:07;;;;;;;28.00;10.55;;;;;;;;;;6248991;22;20445;-78
2022/01/26 01:00:33;;;;;;;27.70;11.55;;;;;;;;;;6211020;22;20011;-79
2022/01/26 01:03:01;;;;;;;27.35;12.07;;;;;;;;;;6248736;22;19995;-78
2022/01/26 01:05:34;;;;;;;30.17;11.88;;;;;;;;;;6248567;22;20008;-78
2022/01/26 01:08:07;;;;;;;27.70;11.35;;;;;;;;;;6224971;22;20034;-77
2022/01/26 01:10:33;;;;;;;32.17;12.02;;;;;;;;;;6250292;22;20409;-77
2022/01/26 01:12:59;;;;;;;30.35;11.70;;;;;;;;;;6225562;22;20078;-78
2022/01/26 01:15:26;;;;;;;26.27;10.50;;;;;;;;;;6223360;22;20455;-78
2022/01/26 01:17:56;;;;;;;27.73;10.35;;;;;;;;;;6248457;22;20000;-79
2022/01/26 01:30:47;;;;;;;31.83;11.63;;;;;;;;;;6251810;22;20385;-78
2022/01/26 01:33:20;;;;;;;24.92;11.25;;;;;;;;;;6224546;22;19999;-79
2022/01/26 01:35:47;;;;;;;33.83;12.32;;;;;;;;;;6276382;22;20003;-79
2022/01/26 01:38:16;;;;;;;29.70;11.88;;;;;;;;;;6248147;22;20003;-79
2022/01/26 01:40:46;;;;;;;28.80;11.27;;;;;;;;;;6275021;22;20008;-79
2022/01/26 01:43:12;;;;;;;23.02;10.50;;;;;;;;;;6248134;22;20066;-78
2022/01/26 01:45:45;;;;;;;31.50;11.10;;;;;;;;;;6252037;22;20003;-78
2022/01/26 01:48:15;;;;;;;25.88;10.52;;;;;;;;;;6249367;22;19995;-78
2022/01/26 01:50:42;;;;;;;;;;;;;;;;;;6275873;22;20077;-78
2022/01/26 01:53:11;;;;;;;34.60;12.25;;;;;;;;;;6274973;22;19914;-78
2022/01/26 01:55:40;;;;;;;28.88;11.02;;;;;;;;;;6278900;22;20083;-79
2022/01/26 01:58:06;;;;;;;29.95;11.90;;;;;;;;;;6198275;22;20157;-79
2022/01/26 02:00:32;;;;;;;28.42;11.55;;;;;;;;;;6247933;22;20008;-79
2022/01/26 02:03:00;;;;;;;30.85;11.90;;;;;;;;;;6275214;22;20612;-79
2022/01/26 02:05:25;;;;;;;29.08;11.13;;;;;;;;;;6279535;22;20004;-79
2022/01/26 02:07:51;;;;;;;27.45;11.30;;;;;;;;;;6285255;22;20006;-79
2022/01/26 02:10:17;;;;;;;32.15;11.57;;;;;;;;;;6250150;22;20423;-79
2022/01/26 02:12:47;;;;;;;26.20;11.27;;;;;;;;;;6223083;22;20004;-80
2022/01/26 02:15:19;;;;;;;35.63;11.80;;;;;;;;;;6291660;22;20078;-79
2022/01/26 02:20:39;;;;;;;29.95;12.27;;;;;;;;;;6248228;22;20003;-79
2022/01/26 03:03:15;;;;;;;27.02;11.10;;;;;;;;;;6251834;22;20004;-79
2022/01/26 03:05:50;;;;;;;29.67;12.02;;;;;;;;;;6278161;22;20008;-80
2022/01/26 03:08:17;;;;;;;35.90;16.85;;;;;;;;;;6278512;22;20003;-79
2022/01/26 03:10:51;;;;;;;32.03;13.52;;;;;;;;;;6278334;22;20012;-80
2022/01/26 03:13:23;;;;;;;31.85;11.98;;;;;;;;;;6227922;22;20015;-79
2022/01/26 03:15:54;;;;;;;25.92;10.85;;;;;;;;;;6280487;22;20014;-79
2022/01/26 03:21:07;;;;;;;30.85;12.15;;;;;;;;;;6277780;22;20019;-78
2022/01/26 03:29:38;;;;;;;26.65;11.93;;;;;;;;;;6255122;22;20057;-80
2022/01/26 03:34:27;;;;;;;31.08;13.48;;;;;;;;;;6278367;22;20437;-79
2022/01/26 03:36:57;;;;;;;28.35;12.13;;;;;;;;;;6277963;22;20003;-79
2022/01/26 03:39:24;;;;;;;35.05;13.18;;;;;;;;;;6279401;22;20053;-80
2022/01/26 03:44:21;;;;;;;36.53;13.13;;;;;;;;;;6279257;22;20010;-80
2022/01/26 03:46:47;;;;;;;32.00;13.43;;;;;;;;;;6226081;22;20074;-79
2022/01/26 03:49:13;;;;;;;32.05;13.57;;;;;;;;;;6223943;22;20023;-79
2022/01/26 03:51:40;;;;;;;33.90;14.27;;;;;;;;;;6276324;22;20339;-79
2022/01/26 03:54:06;;;;;;;40.65;14.88;;;;;;;;;;6249426;22;20011;-79
2022/01/26 03:56:32;;;;;;;35.20;13.05;;;;;;;;;;6249179;22;20004;-79
2022/01/26 03:58:58;;;;;;;33.53;12.88;;;;;;;;;;6276140;22;20045;-80
2022/01/26 04:01:24;;;;;;;34.83;13.13;;;;;;;;;;6249987;22;20007;-80
2022/01/26 04:03:49;;;;;;;36.20;12.80;;;;;;;;;;6277707;22;20022;-79
2022/01/26 04:06:15;;;;;;;34.55;13.57;;;;;;;;;;6253987;22;20418;-80
2022/01/26 04:08:43;;;;;;;34.30;13.57;;;;;;;;;;6276230;22;20003;-80
2022/01/26 04:11:29;;;;;;;41.03;12.77;;;;;;;;;;6276104;22;20010;-80
2022/01/26 04:13:55;;;;;;;41.50;13.48;;;;;;;;;;6275971;22;20049;-80
2022/01/26 04:16:22;;;;;;;37.45;13.07;;;;;;;;;;6276059;22;20004;-80
2022/01/26 04:18:48;;;;;;;33.38;13.10;;;;;;;;;;6249148;22;20423;-77
2022/01/26 04:23:51;;;;;;;36.78;12.95;;;;;;;;;;6229397;22;20075;-80
2022/01/26 04:26:21;;;;;;;32.83;12.50;;;;;;;;;;6280766;22;20003;-81
2022/01/26 04:28:53;;;;;;;38.63;12.25;;;;;;;;;;6276085;22;19999;-81
2022/01/26 04:31:20;;;;;;;49.10;13.95;;;;;;;;;;6226739;22;20421;-80
2022/01/26 04:33:46;;;;;;;39.35;14.32;;;;;;;;;;6248915;22;20007;-79
2022/01/26 04:36:16;;;;;;;37.90;13.23;;;;;;;;;;6276508;22;20023;-79
2022/01/26 04:38:47;;;;;;;42.27;14.03;;;;;;;;;;6248795;22;20008;-80
2022/01/26 04:43:55;;;;;;;34.83;12.32;;;;;;;;;;6252291;22;20015;-80
2022/01/26 04:46:20;;;;;;;32.50;12.30;;;;;;;;;;6283201;22;20027;-80
2022/01/26 04:48:46;;;;;;;37.80;15.35;;;;;;;;;;6252403;22;20423;-79
2022/01/26 04:51:11;;;;;;;39.35;13.60;;;;;;;;;;6248939;22;19995;-80
2022/01/26 04:53:37;;;;;;;37.58;13.15;;;;;;;;;;6223448;22;20014;-80
2022/01/26 04:56:02;;;;;;;32.83;11.30;;;;;;;;;;6249091;22;20343;-79
2022/01/26 04:58:27;;;;;;;38.72;10.25;;;;;;;;;;6276314;22;20419;-79
2022/01/26 05:00:53;;;;;;;24.05;10.07;;;;;;;;;;6275239;22;20062;-78
2022/01/26 05:03:19;;;;;;;42.03;11.20;;;;;;;;;;6248740;22;20338;-77
2022/01/26 05:05:44;;;;;;;32.40;10.80;;;;;;;;;;6248979;22;20015;-79
2022/01/26 05:08:10;;;;;;;29.02;9.68;;;;;;;;;;6249210;22;20381;-78
2022/01/26 05:10:39;;;;;;;40.30;12.63;;;;;;;;;;6258723;22;20030;-79
2022/01/26 05:13:04;;;;;;;38.42;13.43;;;;;;;;;;6275441;22;20373;-78
2022/01/26 05:15:30;;;;;;;39.65;15.45;;;;;;;;;;6222908;22;20058;-78
2022/01/26 05:17:55;;;;;;;49.83;18.45;;;;;;;;;;6275838;22;20006;-78
2022/01/26 05:20:21;;;;;;;47.50;15.55;;;;;;;;;;6281878;22;19988;-78
2022/01/26 05:22:47;;;;;;;35.97;13.70;;;;;;;;;;6239412;22;20035;-78
2022/01/26 05:25:13;;;;;;;40.10;14.60;;;;;;;;;;6247635;23;20512;-78
2022/01/26 05:27:38;;;;;;;33.60;12.68;;;;;;;;;;6216634;23;20001;-78
2022/01/26 05:30:05;;;;;;;28.90;11.25;;;;;;;;;;6189621;23;20008;-78
2022/01/26 05:32:30;;;;;;;34.53;13.05;;;;;;;;;;6168270;23;20008;-78
2022/01/26 05:34:56;;;;;;;32.40;13.30;;;;;;;;;;6214543;23;20009;-78
2022/01/26 05:37:21;;;;;;;34.72;12.27;;;;;;;;;;6188184;23;20005;-78
2022/01/26 05:39:47;;;;;;;33.90;14.13;;;;;;;;;;6180774;23;20012;-78
2022/01/26 05:42:13;;;;;;;36.42;12.60;;;;;;;;;;6218741;23;20004;-79
2022/01/26 05:44:39;;;;;;;37.88;13.63;;;;;;;;;;6218001;23;20086;-78
2022/01/26 05:47:07;;;;;;;35.30;12.63;;;;;;;;;;6163557;23;20004;-79
2022/01/26 05:49:33;;;;;;;43.00;16.00;;;;;;;;;;6191651;23;20031;-79
2022/01/26 05:51:58;;;;;;;33.05;12.05;;;;;;;;;;6245591;23;20443;-78
2022/01/26 05:54:24;;;;;;;35.72;12.75;;;;;;;;;;6213913;23;20000;-77
2022/01/26 05:56:49;;;;;;;38.78;14.57;;;;;;;;;;6191860;23;20072;-78
2022/01/26 05:59:16;;;;;;;34.38;13.70;;;;;;;;;;6187454;23;20075;-78
2022/01/26 06:01:42;;;;;;;35.47;13.13;;;;;;;;;;6217852;23;20051;-78
2022/01/26 06:04:07;;;;;;;32.97;13.20;;;;;;;;;;6213178;23;20016;-79
2022/01/26 06:06:33;;;;;;;34.08;14.38;;;;;;;;;;6214905;23;20071;-79
2022/01/26 06:08:58;;;;;;;35.22;15.32;;;;;;;;;;6244394;23;20009;-78
2022/01/26 06:11:24;;;;;;;36.28;13.93;;;;;;;;;;6212780;23;20087;-79
2022/01/26 06:13:49;;;;;;;43.85;16.83;;;;;;;;;;6242746;23;20005;-79
2022/01/26 06:16:16;;;;;;;38.30;13.63;;;;;;;;;;6244567;23;20015;-78
2022/01/26 06:18:43;;;;;;;36.28;12.95;;;;;;;;;;6245677;23;20317;-79
2022/01/26 06:21:09;;;;;;;32.85;13.65;;;;;;;;;;6254618;22;20007;-77
2022/01/26 06:23:35;;;;;;;40.40;14.45;;;;;;;;;;6248228;22;20007;-77
2022/01/26 06:26:00;;;;;;;40.17;15.20;;;;;;;;;;6273552;22;19996;-78
2022/01/26 06:28:28;;;;;;;39.88;16.17;;;;;;;;;;6273217;22;20000;-77
2022/01/26 06:31:03;;;;;;;41.20;15.27;;;;;;;;;;6273789;22;20003;-78
2022/01/26 06:33:35;;;;;;;41.17;16.17;;;;;;;;;;6275075;22;19999;-78
2022/01/26 06:36:01;;;;;;;36.10;13.88;;;;;;;;;;6281039;22;20031;-78
2022/01/26 06:38:28;;;;;;;39.63;15.57;;;;;;;;;;6275009;22;20000;-78
2022/01/26 06:40:54;;;;;;;40.97;15.90;;;;;;;;;;6236749;22;20015;-79
2022/01/26 06:43:21;;;;;;;39.38;16.25;;;;;;;;;;6280201;22;20086;-79
2022/01/26 06:45:51;;;;;;;46.78;15.32;;;;;;;;;;6274843;22;20006;-78
2022/01/26 06:50:45;;;;;;;35.75;14.50;;;;;;;;;;6275192;22;20031;-78
2022/01/26 06:53:12;;;;;;;41.53;16.75;;;;;;;;;;6275109;22;20358;-78
2022/01/26 06:55:38;;;;;;;36.85;14.75;;;;;;;;;;6275692;22;20000;-79
2022/01/26 06:58:03;;;;;;;39.97;16.70;;;;;;;;;;6279185;22;20074;-78
2022/01/26 07:00:29;;;;;;;40.60;15.93;;;;;;;;;;6274762;22;20390;-78
2022/01/26 07:02:54;;;;;;;34.83;14.02;;;;;;;;;;6273481;22;20004;-79
2022/01/26 07:05:21;;;;;;;35.65;16.17;;;;;;;;;;6286298;22;19999;-78
2022/01/26 07:07:46;;;;;;;31.52;13.07;;;;;;;;;;6273157;22;20012;-78
2022/01/26 07:10:12;;;;;;;40.58;14.13;;;;;;;;;;6273158;22;19996;-79
2022/01/26 07:12:37;;;;;;;33.83;14.95;;;;;;;;;;6223207;22;20061;-79
2022/01/26 07:23:17;;;;;;;43.97;17.80;;;;;;;;;;6244863;22;20078;-80
2022/01/26 07:25:45;;;;;;;44.17;18.30;;;;;;;;;;6277767;22;20026;-80
2022/01/26 07:28:17;;;;;;;41.30;16.67;;;;;;;;;;6235331;22;20074;-77
2022/01/26 07:30:42;;;;;;;50.25;18.48;;;;;;;;;;6253761;22;20015;-78
2022/01/26 07:33:08;;;;;;;63.78;24.40;;;;;;;;;;6278480;22;20142;-78
2022/01/26 07:35:34;;;;;;;42.83;17.63;;;;;;;;;;6278653;22;19995;-78
2022/01/26 07:38:02;;;;;;;47.58;18.95;;;;;;;;;;6251483;22;20004;-79
2022/01/26 07:40:27;;;;;;;55.42;21.35;;;;;;;;;;6259680;22;20006;-79
2022/01/26 07:42:53;;;;;;;54.35;19.52;;;;;;;;;;6251344;22;20046;-78
2022/01/26 07:45:19;;;;;;;49.55;17.48;;;;;;;;;;6277708;22;19999;-77
2022/01/26 07:47:51;;;;;;;31.40;14.25;;;;;;;;;;6278856;22;20000;-78
2022/01/26 07:50:17;;;;;;;43.90;16.35;;;;;;;;;;6279720;22;20015;-78
2022/01/26 07:52:43;;;;;;;30.52;13.38;;;;;;;;;;6281958;22;20011;-78
2022/01/26 07:55:11;;;;;;;34.83;16.92;;;;;;;;;;6278494;22;20071;-78
2022/01/26 07:57:38;;;;;;;35.28;13.77;;;;;;;;;;6254898;22;20015;-79
2022/01/26 08:00:05;;;;;;;26.65;13.00;;;;;;;;;;6230699;22;20030;-78
2022/01/26 08:02:31;;;;;;;30.67;13.25;;;;;;;;;;6284239;22;20015;-78
2022/01/26 08:04:57;;;;;;;27.85;12.52;;;;;;;;;;6277330;22;20007;-80
2022/01/26 08:07:52;;;;;;;26.55;13.05;;;;;;;;;;6252741;22;20000;-79
2022/01/26 08:10:18;;;;;;;43.22;17.45;;;;;;;;;;6268323;22;20086;-79
2022/01/26 08:12:43;;;;;;;42.40;17.17;;;;;;;;;;6275674;22;20000;-79
2022/01/26 08:15:09;;;;;;;47.20;18.95;;;;;;;;;;6281212;22;20026;-78
2022/01/26 08:17:36;;;;;;;37.28;15.75;;;;;;;;;;6280731;22;20086;-78
2022/01/26 08:20:04;;;;;;;30.45;13.27;;;;;;;;;;6281142;22;20000;-78
2022/01/26 08:25:41;;;;;;;42.78;15.98;;;;;;;;;;6251594;22;20004;-78
2022/01/26 08:28:18;;;;;;;39.92;16.40;;;;;;;;;;6290709;22;20082;-78
2022/01/26 08:30:43;;;;;;;38.97;15.77;;;;;;;;;;6284112;22;20072;-78
2022/01/26 08:33:09;;;;;;;40.33;17.70;;;;;;;;;;6279409;22;20003;-78
2022/01/26 08:35:35;;;;;;;32.58;13.75;;;;;;;;;;6279677;22;20003;-78
2022/01/26 08:38:09;;;;;;;34.42;14.00;;;;;;;;;;6280401;22;20000;-80
2022/01/26 08:40:40;;;;;;;40.35;16.30;;;;;;;;;;6257502;22;20343;-78
2022/01/26 08:43:06;;;;;;;40.90;16.83;;;;;;;;;;6277722;22;20419;-78
2022/01/26 08:45:32;;;;;;;39.25;15.38;;;;;;;;;;6280505;22;20014;-79
2022/01/26 08:47:57;;;;;;;43.17;16.17;;;;;;;;;;6275570;22;20332;-78
2022/01/26 08:50:23;;;;;;;47.22;17.65;;;;;;;;;;6250608;22;20014;-79
2022/01/26 08:52:49;;;;;;;42.10;16.52;;;;;;;;;;6277609;22;20423;-79
2022/01/26 08:55:14;;;;;;;40.00;15.90;;;;;;;;;;6277019;22;20006;-79
2022/01/26 08:57:40;;;;;;;35.42;15.65;;;;;;;;;;6251987;22;20327;-79
2022/01/26 09:00:08;;;;;;;48.75;18.85;;;;;;;;;;6279239;22;20007;-79
2022/01/26 09:02:42;;;;;;;97.78;32.47;;;;;;;;;;6285025;22;20034;-79
2022/01/26 09:05:08;;;;;;;103.05;29.13;;;;;;;;;;6280504;22;20358;-78
2022/01/26 09:07:34;;;;;;;89.53;25.20;;;;;;;;;;6278743;22;20069;-78
2022/01/26 09:10:01;;;;;;;55.88;16.92;;;;;;;;;;6278992;22;20055;-78
2022/01/26 09:12:27;;;;;;;50.08;17.98;;;;;;;;;;6280408;22;20008;-80
2022/01/26 09:14:53;;;;;;;49.30;17.35;;;;;;;;;;6253685;22;20375;-79
2022/01/26 09:17:20;;;;;;;44.58;16.25;;;;;;;;;;6280608;22;20095;-78
2022/01/26 09:19:46;;;;;;;94.30;25.65;;;;;;;;;;6277917;22;20027;-79
2022/01/26 09:22:13;;;;;;;69.38;21.63;;;;;;;;;;6276827;22;20026;-79
2022/01/26 09:24:40;;;;;;;60.58;23.77;;;;;;;;;;6254221;22;20086;-77
2022/01/26 09:27:06;;;;;;;36.95;15.50;;;;;;;;;;6281169;22;20010;-79
2022/01/26 09:29:32;;;;;;;35.25;14.32;;;;;;;;;;6251988;22;20071;-79
2022/01/26 09:32:02;;;;;;;35.90;14.32;;;;;;;;;;6277286;22;20008;-80
2022/01/26 09:34:29;;;;;;;34.30;13.88;;;;;;;;;;6278456;22;20394;-79
2022/01/26 09:36:54;;;;;;;48.00;17.83;;;;;;;;;;6254709;22;20437;-79
2022/01/26 09:39:21;;;;;;;49.45;19.35;;;;;;;;;;6277991;22;20004;-79
2022/01/26 09:41:50;;;;;;;40.22;14.85;;;;;;;;;;6252540;22;20098;-80
2022/01/26 09:44:17;;;;;;;34.55;13.13;;;;;;;;;;6253307;22;20004;-79
2022/01/26 09:46:42;;;;;;;34.13;17.60;;;;;;;;;;6279855;22;20057;-79
2022/01/26 09:49:08;;;;;;;29.77;11.98;;;;;;;;;;6280180;22;20003;-79
2022/01/26 09:51:40;;;;;;;30.92;12.82;;;;;;;;;;6253397;22;20072;-80
2022/01/26 09:54:09;;;;;;;35.47;13.73;;;;;;;;;;6255288;22;20010;-77
2022/01/26 09:56:35;;;;;;;28.85;12.90;;;;;;;;;;6280706;22;20083;-78
2022/01/26 10:02:33;;;;;;;40.10;14.85;;;;;;;;;;6124797;23;20018;-79
2022/01/26 10:05:08;;;;;;;51.28;17.50;;;;;;;;;;6271324;22;20008;-80
2022/01/26 10:07:55;;;;;;;40.17;16.48;;;;;;;;;;6277841;22;20006;-78
2022/01/26 10:15:38;;;;;;;43.40;18.20;;;;;;;;;;6276891;22;20077;-80
2022/01/26 10:18:18;;;;;;;53.47;22.65;;;;;;;;;;6250686;22;20011;-78
2022/01/26 10:20:43;;;;;;;44.10;15.15;;;;;;;;;;6251678;22;20091;-78
2022/01/26 10:23:13;;;;;;;38.03;13.82;;;;;;;;;;6277426;22;20008;-78
2022/01/26 10:25:41;;;;;;;42.05;16.23;;;;;;;;;;6277547;22;20003;-79
2022/01/26 10:28:09;;;;;;;40.22;15.77;;;;;;;;;;6276864;22;20007;-78
2022/01/26 10:30:35;;;;;;;36.55;15.27;;;;;;;;;;6275266;22;20007;-79
2022/01/26 10:33:07;;;;;;;37.83;15.70;;;;;;;;;;6276922;22;20008;-78
2022/01/26 10:35:33;;;;;;;36.42;14.15;;;;;;;;;;6252775;22;20189;-78
2022/01/26 10:37:58;;;;;;;41.13;15.85;;;;;;;;;;6278191;22;20011;-79
2022/01/26 10:40:26;;;;;;;44.05;17.48;;;;;;;;;;6277645;22;20006;-77
2022/01/26 10:43:08;;;;;;;44.88;16.77;;;;;;;;;;6275216;22;20061;-79
2022/01/26 10:46:01;;;;;;;44.60;14.70;;;;;;;;;;6277578;22;20000;-79
2022/01/26 10:48:36;;;;;;;45.08;15.40;;;;;;;;;;6276020;22;20004;-79
2022/01/26 10:57:00;;;;;;;50.95;17.80;;;;;;;;;;6110066;23;20017;-80
2022/01/26 10:59:25;;;;;;;60.22;25.05;;;;;;;;;;6229940;22;20003;-79
2022/01/26 11:01:51;;;;;;;58.05;25.63;;;;;;;;;;6275474;22;20003;-77
2022/01/26 11:04:17;;;;;;;53.92;21.20;;;;;;;;;;6275769;22;20087;-79
2022/01/26 11:06:43;;;;;;;42.67;17.70;;;;;;;;;;6251284;22;20007;-77
2022/01/26 11:09:13;;;;;;;73.78;29.67;;;;;;;;;;6250301;22;20166;-79
2022/01/26 11:11:40;;;;;;;50.25;19.48;;;;;;;;;;6252238;22;20074;-78
2022/01/26 11:14:13;;;;;;;49.40;17.90;;;;;;;;;;6253159;22;20023;-78
2022/01/26 11:17:00;;;;;;;45.08;16.52;;;;;;;;;;6277611;22;20347;-78
2022/01/26 11:19:25;;;;;;;58.30;18.90;;;;;;;;;;6253149;22;20003;-79
2022/01/26 11:21:51;;;;;;;51.45;19.05;;;;;;;;;;6275800;22;20090;-80
2022/01/26 11:24:20;;;;;;;45.90;16.65;;;;;;;;;;6276007;22;20008;-78
2022/01/26 11:29:34;;;;;;;56.10;21.38;;;;;;;;;;6254461;22;20069;-79
2022/01/26 11:33:05;;;;;;;44.30;17.92;;;;;;;;;;6278182;22;20006;-78
2022/01/26 11:35:06;;;;;;;44.08;16.88;;;;;;;;;;6264716;22;20043;-78
2022/01/26 11:37:44;;;;;;;47.90;19.48;;;;;;;;;;6279088;22;20000;-78
2022/01/26 11:46:22;;;;;;;50.38;19.23;;;;;;;;;;6225365;22;20008;-77
2022/01/26 11:48:47;;;;;;;53.28;19.65;;;;;;;;;;6265020;22;20453;-77
2022/01/26 11:51:13;;;;;;;44.53;16.88;;;;;;;;;;6251722;22;20007;-77
2022/01/26 11:53:38;;;;;;;45.38;18.15;;;;;;;;;;6276462;22;19999;-78
2022/01/26 11:56:09;;;;;;;49.05;17.40;;;;;;;;;;6278011;22;20003;-77
2022/01/26 11:58:43;;;;;;;45.97;16.38;;;;;;;;;;6251935;22;20023;-78
2022/01/26 12:01:21;;;;;;;43.15;16.50;;;;;;;;;;6251290;22;20059;-78
2022/01/26 12:04:02;;;;;;;49.85;17.92;;;;;;;;;;6253150;22;19996;-78
2022/01/26 12:06:36;;;;;;;42.60;18.30;;;;;;;;;;6252331;22;20089;-78
2022/01/26 12:09:03;;;;;;;49.15;19.52;;;;;;;;;;6276538;22;20004;-78
2022/01/26 12:11:29;;;;;;;47.25;18.63;;;;;;;;;;6252213;22;20003;-78
2022/01/26 12:14:10;;;;;;;47.85;19.35;;;;;;;;;;6251155;22;20004;-79
2022/01/26 12:16:43;;;;;;;44.92;16.08;;;;;;;;;;6251485;22;20423;-78
2022/01/26 12:35:40;;;;;;;47.67;20.85;;;;;;;;;;6276951;22;20007;-78
2022/01/26 12:38:18;;;;;;;49.25;19.90;;;;;;;;;;6275818;22;20012;-78
2022/01/26 12:43:37;;;;;;;59.03;23.75;;;;;;;;;;6254072;22;20442;-79
2022/01/26 12:46:04;;;;;;;48.85;19.15;;;;;;;;;;6250372;22;20000;-78
2022/01/26 12:48:30;;;;;;;58.47;22.70;;;;;;;;;;6275748;22;20007;-78
2022/01/26 12:50:57;;;;;;;60.97;20.65;;;;;;;;;;6251355;22;20038;-78
2022/01/26 12:53:27;;;;;;;47.67;19.80;;;;;;;;;;6276794;22;20505;-78
2022/01/26 12:55:57;;;;;;;42.92;17.20;;;;;;;;;;6251018;22;20011;-79
2022/01/26 12:58:31;;;;;;;69.13;25.33;;;;;;;;;;6276823;22;20007;-79
2022/01/26 13:01:05;;;;;;;52.97;20.85;;;;;;;;;;6225849;22;20010;-79
2022/01/26 13:03:33;;;;;;;50.38;19.63;;;;;;;;;;6249624;22;20015;-79
2022/01/26 13:06:25;;;;;;;64.82;25.23;;;;;;;;;;6276739;22;19996;-79
2022/01/26 13:08:51;;;;;;;73.72;26.00;;;;;;;;;;6251930;22;20008;-79
2022/01/26 13:11:27;;;;;;;51.80;19.30;;;;;;;;;;6275813;22;20086;-80
2022/01/26 13:14:57;;;;;;;51.88;18.60;;;;;;;;;;6276435;22;20004;-79
2022/01/26 13:28:20;;;;;;;61.35;20.55;;;;;;;;;;6228824;22;20007;-79
2022/01/26 13:47:19;;;;;;;67.50;23.10;;;;;;;;;;6275640;22;20008;-78
2022/01/26 13:54:43;;;;;;;54.53;19.63;;;;;;;;;;6275217;22;20000;-78
2022/01/26 13:59:50;;;;;;;53.25;19.75;;;;;;;;;;6275495;22;20347;-78
2022/01/26 14:02:16;;;;;;;66.93;23.08;;;;;;;;;;6277088;22;20030;-78
2022/01/26 14:04:41;;;;;;;57.95;20.67;;;;;;;;;;6279209;22;20031;-79
2022/01/26 14:07:07;;;;;;;139.23;45.63;;;;;;;;;;6248277;22;20004;-78
2022/01/26 14:09:32;;;;;;;64.97;25.58;;;;;;;;;;6223276;22;20007;-78
2022/01/26 14:12:00;;;;;;;54.63;20.15;;;;;;;;;;6248338;22;19995;-78
2022/01/26 14:14:32;;;;;;;74.00;30.30;;;;;;;;;;6274808;22;20011;-81
2022/01/26 14:17:00;;;;;;;101.85;40.78;;;;;;;;;;6224377;22;20004;-79
2022/01/26 14:19:38;;;;;;;64.75;26.38;;;;;;;;;;6274766;22;20004;-79
2022/01/26 14:22:30;;;;;;;82.65;31.98;;;;;;;;;;6274644;22;20384;-78
2022/01/26 14:25:07;;;;;;;71.00;27.25;;;;;;;;;;6253396;22;20085;-78
2022/01/26 14:27:43;;;;;;;60.28;21.67;;;;;;;;;;6275823;22;20427;-77
2022/01/26 14:54:47;;;;;;;64.70;23.13;;;;;;;;;;6276384;22;20000;-79
2022/01/26 15:00:13;;;;;;;69.55;23.55;;;;;;;;;;6274609;22;20008;-79
2022/01/26 15:42:58;;;;;;;74.30;24.15;;;;;;;;;;6226882;22;20012;-78
2022/01/26 16:39:22;;;;;;;105.13;32.65;;;;;;;;;;6229035;22;20004;-79
2022/01/26 17:25:42;;;;;;;114.63;36.85;;;;;;;;;;6252812;22;20096;-78
2022/01/26 18:17:05;;;;;;;118.60;37.22;;;;;;;;;;6275801;22;20004;-78
2022/01/26 18:33:13;;;;;;;110.68;35.03;;;;;;;;;;6274631;22;20512;-79
2022/01/26 18:51:33;;;;;;;105.93;32.03;;;;;;;;;;6275954;22;20015;-79
2022/01/26 18:53:59;;;;;;;114.68;33.97;;;;;;;;;;6248167;22;20427;-79
2022/01/26 18:56:25;;;;;;;108.82;36.55;;;;;;;;;;6247976;22;20007;-79
2022/01/26 18:58:50;;;;;;;113.25;34.17;;;;;;;;;;6222762;22;20075;-78
2022/01/26 19:01:16;;;;;;;116.18;37.15;;;;;;;;;;6277013;22;20004;-78
2022/01/26 19:03:42;;;;;;;121.30;38.97;;;;;;;;;;6249289;22;20018;-79
2022/01/26 19:06:08;;;;;;;113.20;38.03;;;;;;;;;;6247998;22;20338;-78
2022/01/26 19:08:35;;;;;;;116.95;37.92;;;;;;;;;;6223514;22;20031;-78
2022/01/26 19:11:01;;;;;;;137.27;40.65;;;;;;;;;;6279617;22;20622;-79
2022/01/26 19:13:29;;;;;;;120.65;40.20;;;;;;;;;;6276393;22;20462;-79
2022/01/26 19:16:01;;;;;;;129.60;40.75;;;;;;;;;;6249118;22;20367;-79
2022/01/26 19:18:44;;;;;;;138.00;44.22;;;;;;;;;;6199822;22;20004;-79
2022/01/26 19:21:20;;;;;;;143.82;49.13;;;;;;;;;;6253543;22;20008;-78
2022/01/26 19:26:26;;;;;;;132.32;43.10;;;;;;;;;;6276793;22;20078;-78
2022/01/26 19:28:59;;;;;;;159.95;52.05;;;;;;;;;;6276955;22;20008;-79
2022/01/26 19:40:27;;;;;;;180.32;59.95;;;;;;;;;;6276787;22;20014;-78
2022/01/26 19:50:47;;;;;;;214.90;66.45;;;;;;;;;;6277188;22;20000;-79
2022/01/26 19:53:12;;;;;;;215.77;68.95;;;;;;;;;;6276374;22;20090;-78
2022/01/26 19:55:38;;;;;;;223.40;71.03;;;;;;;;;;6250368;22;19999;-79
2022/01/26 19:58:04;;;;;;;224.32;72.88;;;;;;;;;;6294365;22;20047;-79
2022/01/26 20:00:30;;;;;;;229.10;72.22;;;;;;;;;;6281002;22;20000;-80
2022/01/26 20:02:56;;;;;;;224.32;74.35;;;;;;;;;;6276287;22;20004;-80
2022/01/26 20:05:21;;;;;;;242.02;76.47;;;;;;;;;;6277375;22;20045;-79
2022/01/26 20:07:51;;;;;;;254.68;78.20;;;;;;;;;;6253106;22;20042;-78
2022/01/26 20:10:24;;;;;;;226.25;74.30;;;;;;;;;;6225425;22;20114;-79
2022/01/26 20:12:59;;;;;;;239.00;73.30;;;;;;;;;;6227877;22;20007;-79
2022/01/26 20:15:25;;;;;;;252.85;73.47;;;;;;;;;;6250936;22;20000;-78
2022/01/26 20:17:51;;;;;;;258.27;72.38;;;;;;;;;;6249559;22;20003;-79
2022/01/26 20:20:16;;;;;;;254.48;75.78;;;;;;;;;;6289278;22;20039;-79
2022/01/26 20:22:42;;;;;;;328.23;86.95;;;;;;;;;;6252140;22;20011;-78
2022/01/26 20:25:08;;;;;;;338.40;84.95;;;;;;;;;;6224048;22;20381;-79
2022/01/26 20:27:36;;;;;;;397.63;94.78;;;;;;;;;;6281878;22;20002;-78
2022/01/26 20:30:11;;;;;;;311.90;81.72;;;;;;;;;;6275957;22;20489;-79
2022/01/26 20:32:36;;;;;;;328.27;82.97;;;;;;;;;;6225588;22;19996;-79
2022/01/26 20:35:02;;;;;;;352.27;84.78;;;;;;;;;;6276171;22;20064;-78
2022/01/26 20:37:28;;;;;;;318.65;75.65;;;;;;;;;;6250102;22;20302;-78
2022/01/26 20:39:55;;;;;;;295.02;70.03;;;;;;;;;;6279574;22;20004;-78
2022/01/26 20:42:21;;;;;;;265.10;66.55;;;;;;;;;;6228449;22;20014;-78
2022/01/26 20:44:46;;;;;;;267.05;66.35;;;;;;;;;;6263113;22;20026;-79
2022/01/26 20:47:12;;;;;;;263.30;64.07;;;;;;;;;;6223800;22;20431;-78
2022/01/26 20:49:37;;;;;;;200.35;57.20;;;;;;;;;;6284031;22;20012;-78
2022/01/26 20:52:03;;;;;;;199.15;57.10;;;;;;;;;;6275764;22;20011;-78
2022/01/26 20:54:29;;;;;;;181.43;53.45;;;;;;;;;;6248667;22;19999;-79
2022/01/26 20:56:54;;;;;;;183.05;56.42;;;;;;;;;;6248989;22;20381;-79
2022/01/26 20:59:20;;;;;;;207.52;59.22;;;;;;;;;;6223297;22;20351;-79
2022/01/26 21:01:45;;;;;;;238.23;66.55;;;;;;;;;;6248776;22;20030;-78
2022/01/26 21:04:11;;;;;;;289.70;75.82;;;;;;;;;;6276059;22;20481;-79
2022/01/26 21:06:37;;;;;;;292.65;76.15;;;;;;;;;;6259759;22;20003;-79
2022/01/26 21:09:03;;;;;;;264.50;68.22;;;;;;;;;;6249169;22;20000;-78
2022/01/26 21:11:29;;;;;;;232.43;64.97;;;;;;;;;;6224484;22;20042;-79
2022/01/26 21:13:55;;;;;;;224.30;62.17;;;;;;;;;;6275323;22;19995;-79
2022/01/26 21:16:22;;;;;;;185.10;52.78;;;;;;;;;;6223539;22;20088;-79
2022/01/26 21:18:48;;;;;;;197.93;55.65;;;;;;;;;;6224163;22;20006;-78
2022/01/26 21:21:13;;;;;;;168.73;48.88;;;;;;;;;;6248430;22;20039;-79
2022/01/26 21:23:39;;;;;;;173.85;48.85;;;;;;;;;;6276108;22;20000;-78
2022/01/26 21:26:05;;;;;;;156.60;45.15;;;;;;;;;;6223171;22;20003;-78
2022/01/26 21:28:31;;;;;;;173.50;47.97;;;;;;;;;;6249081;22;20513;-79
2022/01/26 21:30:58;;;;;;;180.93;49.50;;;;;;;;;;6278420;22;20007;-79
2022/01/26 21:33:23;;;;;;;182.30;51.15;;;;;;;;;;6252127;22;20004;-79
2022/01/26 21:35:49;;;;;;;189.82;52.95;;;;;;;;;;6248745;22;20517;-79
2022/01/26 21:38:15;;;;;;;177.38;55.20;;;;;;;;;;6223228;22;20003;-78
2022/01/26 21:40:41;;;;;;;173.23;54.28;;;;;;;;;;6248466;22;19999;-78
2022/01/26 21:43:07;;;;;;;177.25;54.15;;;;;;;;;;6222279;22;20027;-78
2022/01/26 21:45:33;;;;;;;168.18;50.17;;;;;;;;;;6275237;22;20411;-78
2022/01/26 21:47:58;;;;;;;161.27;50.15;;;;;;;;;;6223070;22;20003;-78
2022/01/26 21:50:24;;;;;;;180.05;53.70;;;;;;;;;;6249406;22;20046;-79